sensor_id;sensor_type;location;lat;lon;timestamp;P1;durP1;ratioP1;P2;durP2;ratioP2
68714;SDS011;55692;53.356;10.030;2023-05-20T00:00:37;2.10;;;1.25;;
68714;SDS011;55692;53.356;10.030;2023-05-20T00:03:03;2.42;;;1.35;;
68714;SDS011;55692;53.356;10.030;2023-05-20T00:05:29;3.58;;;1.30;;
68714;SDS011;55692;53.356;10.030;2023-05-20T00:07:55;2.67;;;1.15;;
68714;SDS011;55692;53.356;10.030;2023-05-20T00:10:21;2.80;;;1.40;;
68714;SDS011;55692;53.356;10.030;2023-05-20T00:12:47;2.30;;;0.93;;
68714;SDS011;55692;53.356;10.030;2023-05-20T00:15:13;3.50;;;1.38;;
68714;SDS011;55692;53.356;10.030;2023-05-20T00:17:39;2.42;;;0.93;;
68714;SDS011;55692;53.356;10.030;2023-05-20T00:20:05;1.95;;;0.98;;
68714;SDS011;55692;53.356;10.030;2023-05-20T00:22:32;5.95;;;1.00;;
68714;SDS011;55692;53.356;10.030;2023-05-20T00:24:58;3.45;;;1.10;;
68714;SDS011;55692;53.356;10.030;2023-05-20T00:27:24;2.47;;;0.93;;
68714;SDS011;55692;53.356;10.030;2023-05-20T00:29:50;1.77;;;1.05;;
68714;SDS011;55692;53.356;10.030;2023-05-20T00:32:16;2.55;;;1.00;;
68714;SDS011;55692;53.356;10.030;2023-05-20T00:34:42;1.45;;;0.77;;
68714;SDS011;55692;53.356;10.030;2023-05-20T00:37:08;2.60;;;1.08;;
68714;SDS011;55692;53.356;10.030;2023-05-20T00:39:34;2.10;;;1.00;;
68714;SDS011;55692;53.356;10.030;2023-05-20T00:42:00;1.80;;;1.00;;
68714;SDS011;55692;53.356;10.030;2023-05-20T00:44:27;9.27;;;2.45;;
68714;SDS011;55692;53.356;10.030;2023-05-20T00:46:53;2.00;;;1.10;;
68714;SDS011;55692;53.356;10.030;2023-05-20T00:49:20;1.33;;;1.10;;
68714;SDS011;55692;53.356;10.030;2023-05-20T00:51:47;3.17;;;0.90;;
68714;SDS011;55692;53.356;10.030;2023-05-20T00:54:13;1.60;;;0.90;;
68714;SDS011;55692;53.356;10.030;2023-05-20T00:56:39;2.40;;;1.13;;
68714;SDS011;55692;53.356;10.030;2023-05-20T00:59:06;2.40;;;1.02;;
68714;SDS011;55692;53.356;10.030;2023-05-20T01:01:32;4.85;;;1.27;;
68714;SDS011;55692;53.356;10.030;2023-05-20T01:03:58;2.90;;;1.10;;
68714;SDS011;55692;53.356;10.030;2023-05-20T01:06:24;2.95;;;0.85;;
68714;SDS011;55692;53.356;10.030;2023-05-20T01:08:52;1.52;;;0.88;;
68714;SDS011;55692;53.356;10.030;2023-05-20T01:11:21;2.17;;;0.80;;
68714;SDS011;55692;53.356;10.030;2023-05-20T01:13:53;3.50;;;1.08;;
68714;SDS011;55692;53.356;10.030;2023-05-20T01:16:19;1.50;;;1.10;;
68714;SDS011;55692;53.356;10.030;2023-05-20T01:18:47;3.58;;;1.00;;
68714;SDS011;55692;53.356;10.030;2023-05-20T01:21:13;2.42;;;0.80;;
68714;SDS011;55692;53.356;10.030;2023-05-20T01:23:40;4.75;;;1.15;;
68714;SDS011;55692;53.356;10.030;2023-05-20T01:26:07;3.58;;;0.90;;
68714;SDS011;55692;53.356;10.030;2023-05-20T01:28:36;2.70;;;1.15;;
68714;SDS011;55692;53.356;10.030;2023-05-20T01:31:04;3.25;;;1.08;;
68714;SDS011;55692;53.356;10.030;2023-05-20T01:33:30;3.25;;;1.08;;
68714;SDS011;55692;53.356;10.030;2023-05-20T01:35:59;1.20;;;0.93;;
68714;SDS011;55692;53.356;10.030;2023-05-20T01:38:25;4.22;;;0.80;;
68714;SDS011;55692;53.356;10.030;2023-05-20T01:40:52;2.15;;;1.20;;
68714;SDS011;55692;53.356;10.030;2023-05-20T01:43:19;1.27;;;1.00;;
68714;SDS011;55692;53.356;10.030;2023-05-20T01:45:45;2.25;;;0.93;;
68714;SDS011;55692;53.356;10.030;2023-05-20T01:48:12;6.03;;;1.20;;
68714;SDS011;55692;53.356;10.030;2023-05-20T01:50:38;2.20;;;1.17;;
68714;SDS011;55692;53.356;10.030;2023-05-20T01:53:04;4.18;;;1.80;;
68714;SDS011;55692;53.356;10.030;2023-05-20T01:55:32;1.77;;;0.90;;
68714;SDS011;55692;53.356;10.030;2023-05-20T01:57:58;1.08;;;0.90;;
68714;SDS011;55692;53.356;10.030;2023-05-20T02:00:24;2.10;;;0.90;;
68714;SDS011;55692;53.356;10.030;2023-05-20T02:02:50;3.92;;;1.20;;
68714;SDS011;55692;53.356;10.030;2023-05-20T02:05:16;5.30;;;1.20;;
68714;SDS011;55692;53.356;10.030;2023-05-20T02:07:42;4.00;;;1.40;;
68714;SDS011;55692;53.356;10.030;2023-05-20T02:10:08;2.65;;;1.10;;
68714;SDS011;55692;53.356;10.030;2023-05-20T02:12:34;3.42;;;1.13;;
68714;SDS011;55692;53.356;10.030;2023-05-20T02:15:01;3.53;;;1.00;;
68714;SDS011;55692;53.356;10.030;2023-05-20T02:17:27;2.15;;;1.23;;
68714;SDS011;55692;53.356;10.030;2023-05-20T02:19:53;3.25;;;1.08;;
68714;SDS011;55692;53.356;10.030;2023-05-20T02:22:19;2.45;;;0.98;;
68714;SDS011;55692;53.356;10.030;2023-05-20T02:24:45;3.95;;;1.30;;
68714;SDS011;55692;53.356;10.030;2023-05-20T02:27:11;2.15;;;1.08;;
68714;SDS011;55692;53.356;10.030;2023-05-20T02:29:37;1.83;;;0.90;;
68714;SDS011;55692;53.356;10.030;2023-05-20T02:32:03;2.63;;;0.90;;
68714;SDS011;55692;53.356;10.030;2023-05-20T02:34:30;1.08;;;0.90;;
68714;SDS011;55692;53.356;10.030;2023-05-20T02:36:56;3.13;;;1.23;;
68714;SDS011;55692;53.356;10.030;2023-05-20T02:39:22;1.55;;;0.93;;
68714;SDS011;55692;53.356;10.030;2023-05-20T02:41:48;1.85;;;1.20;;
68714;SDS011;55692;53.356;10.030;2023-05-20T02:44:14;3.35;;;1.08;;
68714;SDS011;55692;53.356;10.030;2023-05-20T02:46:41;4.18;;;0.90;;
68714;SDS011;55692;53.356;10.030;2023-05-20T02:49:07;2.95;;;1.42;;
68714;SDS011;55692;53.356;10.030;2023-05-20T02:51:33;3.08;;;1.20;;
68714;SDS011;55692;53.356;10.030;2023-05-20T02:53:59;1.55;;;0.98;;
68714;SDS011;55692;53.356;10.030;2023-05-20T02:56:25;3.47;;;1.10;;
68714;SDS011;55692;53.356;10.030;2023-05-20T02:58:52;2.13;;;1.30;;
68714;SDS011;55692;53.356;10.030;2023-05-20T03:01:18;5.20;;;1.30;;
68714;SDS011;55692;53.356;10.030;2023-05-20T03:03:45;1.75;;;1.00;;
68714;SDS011;55692;53.356;10.030;2023-05-20T03:06:11;2.15;;;1.02;;
68714;SDS011;55692;53.356;10.030;2023-05-20T03:08:37;2.92;;;1.00;;
68714;SDS011;55692;53.356;10.030;2023-05-20T03:11:03;1.33;;;0.90;;
68714;SDS011;55692;53.356;10.030;2023-05-20T03:13:30;3.65;;;1.00;;
68714;SDS011;55692;53.356;10.030;2023-05-20T03:15:56;2.08;;;1.00;;
68714;SDS011;55692;53.356;10.030;2023-05-20T03:18:22;2.58;;;1.20;;
68714;SDS011;55692;53.356;10.030;2023-05-20T03:20:48;2.45;;;1.15;;
68714;SDS011;55692;53.356;10.030;2023-05-20T03:23:14;1.85;;;1.00;;
68714;SDS011;55692;53.356;10.030;2023-05-20T03:25:40;2.00;;;1.13;;
68714;SDS011;55692;53.356;10.030;2023-05-20T03:28:06;1.08;;;0.90;;
68714;SDS011;55692;53.356;10.030;2023-05-20T03:30:32;1.38;;;1.00;;
68714;SDS011;55692;53.356;10.030;2023-05-20T03:32:58;2.65;;;1.10;;
68714;SDS011;55692;53.356;10.030;2023-05-20T03:35:27;2.38;;;1.17;;
68714;SDS011;55692;53.356;10.030;2023-05-20T03:37:53;2.97;;;0.95;;
68714;SDS011;55692;53.356;10.030;2023-05-20T03:40:20;2.08;;;1.10;;
68714;SDS011;55692;53.356;10.030;2023-05-20T03:42:46;1.95;;;1.13;;
68714;SDS011;55692;53.356;10.030;2023-05-20T03:45:12;2.30;;;1.10;;
68714;SDS011;55692;53.356;10.030;2023-05-20T03:47:38;2.08;;;1.17;;
68714;SDS011;55692;53.356;10.030;2023-05-20T03:50:04;3.10;;;1.25;;
68714;SDS011;55692;53.356;10.030;2023-05-20T03:52:30;3.60;;;1.23;;
68714;SDS011;55692;53.356;10.030;2023-05-20T03:54:56;3.03;;;0.80;;
68714;SDS011;55692;53.356;10.030;2023-05-20T03:57:22;1.00;;;0.70;;
68714;SDS011;55692;53.356;10.030;2023-05-20T03:59:48;1.30;;;0.90;;
68714;SDS011;55692;53.356;10.030;2023-05-20T04:02:15;1.48;;;0.95;;
68714;SDS011;55692;53.356;10.030;2023-05-20T04:04:41;3.83;;;1.10;;
68714;SDS011;55692;53.356;10.030;2023-05-20T04:07:07;4.10;;;1.10;;
68714;SDS011;55692;53.356;10.030;2023-05-20T04:09:33;2.20;;;1.00;;
68714;SDS011;55692;53.356;10.030;2023-05-20T04:12:00;4.20;;;1.08;;
68714;SDS011;55692;53.356;10.030;2023-05-20T04:14:27;2.53;;;1.10;;
68714;SDS011;55692;53.356;10.030;2023-05-20T04:16:53;2.60;;;1.15;;
68714;SDS011;55692;53.356;10.030;2023-05-20T04:19:19;4.53;;;1.13;;
68714;SDS011;55692;53.356;10.030;2023-05-20T04:21:45;2.03;;;1.10;;
68714;SDS011;55692;53.356;10.030;2023-05-20T04:24:11;1.80;;;1.00;;
68714;SDS011;55692;53.356;10.030;2023-05-20T04:26:37;2.90;;;1.00;;
68714;SDS011;55692;53.356;10.030;2023-05-20T04:29:03;1.75;;;1.10;;
68714;SDS011;55692;53.356;10.030;2023-05-20T04:31:29;1.90;;;1.10;;
68714;SDS011;55692;53.356;10.030;2023-05-20T04:33:56;1.88;;;0.80;;
68714;SDS011;55692;53.356;10.030;2023-05-20T04:36:22;3.25;;;1.00;;
68714;SDS011;55692;53.356;10.030;2023-05-20T04:38:54;2.03;;;1.00;;
68714;SDS011;55692;53.356;10.030;2023-05-20T04:41:21;1.42;;;0.70;;
68714;SDS011;55692;53.356;10.030;2023-05-20T04:43:47;2.63;;;0.93;;
68714;SDS011;55692;53.356;10.030;2023-05-20T04:46:14;1.33;;;0.60;;
68714;SDS011;55692;53.356;10.030;2023-05-20T04:48:40;1.45;;;0.90;;
68714;SDS011;55692;53.356;10.030;2023-05-20T04:51:07;3.03;;;1.00;;
68714;SDS011;55692;53.356;10.030;2023-05-20T04:53:33;2.67;;;0.73;;
68714;SDS011;55692;53.356;10.030;2023-05-20T04:55:59;3.40;;;1.08;;
68714;SDS011;55692;53.356;10.030;2023-05-20T04:58:25;2.90;;;0.93;;
68714;SDS011;55692;53.356;10.030;2023-05-20T05:00:53;2.45;;;1.10;;
68714;SDS011;55692;53.356;10.030;2023-05-20T05:03:20;3.88;;;0.90;;
68714;SDS011;55692;53.356;10.030;2023-05-20T05:05:46;1.45;;;1.00;;
68714;SDS011;55692;53.356;10.030;2023-05-20T05:08:12;7.57;;;1.17;;
68714;SDS011;55692;53.356;10.030;2023-05-20T05:10:38;2.33;;;1.10;;
68714;SDS011;55692;53.356;10.030;2023-05-20T05:13:04;2.00;;;1.13;;
68714;SDS011;55692;53.356;10.030;2023-05-20T05:15:30;2.25;;;0.80;;
68714;SDS011;55692;53.356;10.030;2023-05-20T05:17:56;2.42;;;1.42;;
68714;SDS011;55692;53.356;10.030;2023-05-20T05:20:22;1.40;;;0.70;;
68714;SDS011;55692;53.356;10.030;2023-05-20T05:22:48;1.67;;;0.88;;
68714;SDS011;55692;53.356;10.030;2023-05-20T05:25:15;2.17;;;0.98;;
68714;SDS011;55692;53.356;10.030;2023-05-20T05:27:41;5.50;;;1.75;;
68714;SDS011;55692;53.356;10.030;2023-05-20T05:30:08;2.17;;;1.13;;
68714;SDS011;55692;53.356;10.030;2023-05-20T05:32:35;1.63;;;0.82;;
68714;SDS011;55692;53.356;10.030;2023-05-20T05:35:01;2.47;;;0.90;;
68714;SDS011;55692;53.356;10.030;2023-05-20T05:37:28;1.60;;;0.98;;
68714;SDS011;55692;53.356;10.030;2023-05-20T05:39:54;2.08;;;0.80;;
68714;SDS011;55692;53.356;10.030;2023-05-20T05:42:19;1.52;;;0.82;;
68714;SDS011;55692;53.356;10.030;2023-05-20T05:44:47;2.97;;;1.10;;
68714;SDS011;55692;53.356;10.030;2023-05-20T05:47:13;3.60;;;0.95;;
68714;SDS011;55692;53.356;10.030;2023-05-20T05:49:39;2.58;;;1.30;;
68714;SDS011;55692;53.356;10.030;2023-05-20T05:52:05;2.78;;;1.02;;
68714;SDS011;55692;53.356;10.030;2023-05-20T05:54:31;3.55;;;1.10;;
68714;SDS011;55692;53.356;10.030;2023-05-20T05:56:57;1.80;;;0.98;;
68714;SDS011;55692;53.356;10.030;2023-05-20T05:59:23;3.28;;;1.08;;
68714;SDS011;55692;53.356;10.030;2023-05-20T06:01:49;2.83;;;1.02;;
68714;SDS011;55692;53.356;10.030;2023-05-20T06:04:15;5.55;;;1.13;;
68714;SDS011;55692;53.356;10.030;2023-05-20T06:06:41;2.50;;;1.00;;
68714;SDS011;55692;53.356;10.030;2023-05-20T06:09:08;3.53;;;1.30;;
68714;SDS011;55692;53.356;10.030;2023-05-20T06:11:34;2.97;;;1.20;;
68714;SDS011;55692;53.356;10.030;2023-05-20T06:14:00;4.13;;;1.20;;
68714;SDS011;55692;53.356;10.030;2023-05-20T06:16:26;1.92;;;0.70;;
68714;SDS011;55692;53.356;10.030;2023-05-20T06:18:52;1.98;;;1.00;;
68714;SDS011;55692;53.356;10.030;2023-05-20T06:21:21;4.57;;;1.27;;
68714;SDS011;55692;53.356;10.030;2023-05-20T06:23:47;3.58;;;0.95;;
68714;SDS011;55692;53.356;10.030;2023-05-20T06:26:13;3.75;;;1.23;;
68714;SDS011;55692;53.356;10.030;2023-05-20T06:28:40;1.90;;;1.25;;
68714;SDS011;55692;53.356;10.030;2023-05-20T06:31:06;2.13;;;1.10;;
68714;SDS011;55692;53.356;10.030;2023-05-20T06:33:32;4.13;;;1.33;;
68714;SDS011;55692;53.356;10.030;2023-05-20T06:35:58;2.00;;;1.10;;
68714;SDS011;55692;53.356;10.030;2023-05-20T06:38:25;1.85;;;1.20;;
68714;SDS011;55692;53.356;10.030;2023-05-20T06:40:52;2.78;;;1.10;;
68714;SDS011;55692;53.356;10.030;2023-05-20T06:43:18;6.35;;;1.50;;
68714;SDS011;55692;53.356;10.030;2023-05-20T06:45:44;4.97;;;1.60;;
68714;SDS011;55692;53.356;10.030;2023-05-20T06:48:10;5.60;;;1.45;;
68714;SDS011;55692;53.356;10.030;2023-05-20T06:50:36;3.47;;;1.25;;
68714;SDS011;55692;53.356;10.030;2023-05-20T06:53:02;2.33;;;1.20;;
68714;SDS011;55692;53.356;10.030;2023-05-20T06:55:29;3.25;;;1.60;;
68714;SDS011;55692;53.356;10.030;2023-05-20T06:57:55;5.65;;;1.10;;
68714;SDS011;55692;53.356;10.030;2023-05-20T07:00:21;4.57;;;1.65;;
68714;SDS011;55692;53.356;10.030;2023-05-20T07:02:47;2.40;;;1.20;;
68714;SDS011;55692;53.356;10.030;2023-05-20T07:05:13;2.67;;;1.35;;
68714;SDS011;55692;53.356;10.030;2023-05-20T07:07:39;3.22;;;1.25;;
68714;SDS011;55692;53.356;10.030;2023-05-20T07:10:05;3.13;;;1.10;;
68714;SDS011;55692;53.356;10.030;2023-05-20T07:12:32;2.38;;;1.58;;
68714;SDS011;55692;53.356;10.030;2023-05-20T07:14:58;4.88;;;1.67;;
68714;SDS011;55692;53.356;10.030;2023-05-20T07:17:24;2.25;;;1.48;;
68714;SDS011;55692;53.356;10.030;2023-05-20T07:19:50;2.70;;;1.30;;
68714;SDS011;55692;53.356;10.030;2023-05-20T07:22:16;4.65;;;1.60;;
68714;SDS011;55692;53.356;10.030;2023-05-20T07:24:42;2.90;;;1.48;;
68714;SDS011;55692;53.356;10.030;2023-05-20T07:27:08;6.97;;;1.65;;
68714;SDS011;55692;53.356;10.030;2023-05-20T07:29:35;7.07;;;1.67;;
68714;SDS011;55692;53.356;10.030;2023-05-20T07:32:01;3.50;;;1.60;;
68714;SDS011;55692;53.356;10.030;2023-05-20T07:34:27;2.20;;;1.10;;
68714;SDS011;55692;53.356;10.030;2023-05-20T07:36:53;2.83;;;1.55;;
68714;SDS011;55692;53.356;10.030;2023-05-20T07:39:21;7.18;;;2.25;;
68714;SDS011;55692;53.356;10.030;2023-05-20T07:41:47;5.25;;;2.28;;
68714;SDS011;55692;53.356;10.030;2023-05-20T07:44:13;2.22;;;1.10;;
68714;SDS011;55692;53.356;10.030;2023-05-20T07:46:40;22.63;;;3.03;;
68714;SDS011;55692;53.356;10.030;2023-05-20T07:49:06;4.25;;;1.85;;
68714;SDS011;55692;53.356;10.030;2023-05-20T07:51:32;5.85;;;1.40;;
68714;SDS011;55692;53.356;10.030;2023-05-20T07:53:58;5.93;;;1.58;;
68714;SDS011;55692;53.356;10.030;2023-05-20T07:56:24;6.22;;;1.70;;
68714;SDS011;55692;53.356;10.030;2023-05-20T07:58:51;1.92;;;1.20;;
68714;SDS011;55692;53.356;10.030;2023-05-20T08:01:18;4.43;;;1.30;;
68714;SDS011;55692;53.356;10.030;2023-05-20T08:03:44;3.75;;;1.50;;
68714;SDS011;55692;53.356;10.030;2023-05-20T08:06:10;3.97;;;1.27;;
68714;SDS011;55692;53.356;10.030;2023-05-20T08:08:36;3.95;;;1.00;;
68714;SDS011;55692;53.356;10.030;2023-05-20T08:11:04;4.35;;;1.45;;
68714;SDS011;55692;53.356;10.030;2023-05-20T08:13:30;2.13;;;1.27;;
68714;SDS011;55692;53.356;10.030;2023-05-20T08:15:56;4.43;;;1.60;;
68714;SDS011;55692;53.356;10.030;2023-05-20T08:18:22;3.03;;;1.30;;
68714;SDS011;55692;53.356;10.030;2023-05-20T08:20:48;3.85;;;1.45;;
68714;SDS011;55692;53.356;10.030;2023-05-20T08:23:14;3.47;;;1.30;;
68714;SDS011;55692;53.356;10.030;2023-05-20T08:25:40;2.63;;;1.30;;
68714;SDS011;55692;53.356;10.030;2023-05-20T08:28:07;1.80;;;1.30;;
68714;SDS011;55692;53.356;10.030;2023-05-20T08:30:33;5.47;;;1.50;;
68714;SDS011;55692;53.356;10.030;2023-05-20T08:32:59;2.10;;;1.35;;
68714;SDS011;55692;53.356;10.030;2023-05-20T08:35:25;2.70;;;1.30;;
68714;SDS011;55692;53.356;10.030;2023-05-20T08:37:52;3.65;;;1.50;;
68714;SDS011;55692;53.356;10.030;2023-05-20T08:40:18;2.92;;;1.45;;
68714;SDS011;55692;53.356;10.030;2023-05-20T08:42:45;5.00;;;1.52;;
68714;SDS011;55692;53.356;10.030;2023-05-20T08:45:13;6.25;;;1.50;;
68714;SDS011;55692;53.356;10.030;2023-05-20T08:47:40;3.97;;;1.25;;
68714;SDS011;55692;53.356;10.030;2023-05-20T08:50:10;1.70;;;1.25;;
68714;SDS011;55692;53.356;10.030;2023-05-20T08:52:38;3.38;;;1.80;;
68714;SDS011;55692;53.356;10.030;2023-05-20T08:55:06;7.70;;;1.30;;
68714;SDS011;55692;53.356;10.030;2023-05-20T08:57:33;4.03;;;1.33;;
68714;SDS011;55692;53.356;10.030;2023-05-20T09:00:00;2.85;;;1.30;;
68714;SDS011;55692;53.356;10.030;2023-05-20T09:02:35;4.28;;;1.77;;
68714;SDS011;55692;53.356;10.030;2023-05-20T09:05:02;2.10;;;1.25;;
68714;SDS011;55692;53.356;10.030;2023-05-20T09:07:29;2.80;;;1.60;;
68714;SDS011;55692;53.356;10.030;2023-05-20T09:09:56;2.38;;;1.30;;
68714;SDS011;55692;53.356;10.030;2023-05-20T09:12:22;5.50;;;1.42;;
68714;SDS011;55692;53.356;10.030;2023-05-20T09:14:48;5.50;;;1.55;;
68714;SDS011;55692;53.356;10.030;2023-05-20T09:17:14;2.50;;;1.40;;
68714;SDS011;55692;53.356;10.030;2023-05-20T09:19:41;3.53;;;1.35;;
68714;SDS011;55692;53.356;10.030;2023-05-20T09:22:07;3.63;;;1.50;;
68714;SDS011;55692;53.356;10.030;2023-05-20T09:24:33;3.97;;;1.42;;
68714;SDS011;55692;53.356;10.030;2023-05-20T09:26:59;2.58;;;1.27;;
68714;SDS011;55692;53.356;10.030;2023-05-20T09:29:26;3.70;;;1.40;;
68714;SDS011;55692;53.356;10.030;2023-05-20T09:31:52;4.05;;;1.63;;
68714;SDS011;55692;53.356;10.030;2023-05-20T09:34:23;5.90;;;1.70;;
68714;SDS011;55692;53.356;10.030;2023-05-20T09:36:49;4.50;;;1.10;;
68714;SDS011;55692;53.356;10.030;2023-05-20T09:39:16;3.70;;;1.08;;
68714;SDS011;55692;53.356;10.030;2023-05-20T09:44:28;2.90;;;1.17;;
68714;SDS011;55692;53.356;10.030;2023-05-20T09:46:55;5.78;;;1.40;;
68714;SDS011;55692;53.356;10.030;2023-05-20T09:49:21;2.55;;;1.30;;
68714;SDS011;55692;53.356;10.030;2023-05-20T09:51:48;2.25;;;1.30;;
68714;SDS011;55692;53.356;10.030;2023-05-20T09:54:16;2.35;;;1.40;;
68714;SDS011;55692;53.356;10.030;2023-05-20T09:56:43;4.45;;;1.52;;
68714;SDS011;55692;53.356;10.030;2023-05-20T09:59:09;3.42;;;1.20;;
68714;SDS011;55692;53.356;10.030;2023-05-20T10:01:36;2.40;;;1.25;;
68714;SDS011;55692;53.356;10.030;2023-05-20T10:04:03;3.63;;;1.20;;
68714;SDS011;55692;53.356;10.030;2023-05-20T10:16:50;3.30;;;1.40;;
68714;SDS011;55692;53.356;10.030;2023-05-20T10:21:58;6.13;;;1.20;;
68714;SDS011;55692;53.356;10.030;2023-05-20T10:24:29;2.67;;;1.15;;
68714;SDS011;55692;53.356;10.030;2023-05-20T10:26:56;3.65;;;1.20;;
68714;SDS011;55692;53.356;10.030;2023-05-20T10:29:22;2.10;;;1.23;;
68714;SDS011;55692;53.356;10.030;2023-05-20T10:31:49;3.45;;;1.30;;
68714;SDS011;55692;53.356;10.030;2023-05-20T10:34:16;4.35;;;1.80;;
68714;SDS011;55692;53.356;10.030;2023-05-20T10:36:46;4.70;;;1.50;;
68714;SDS011;55692;53.356;10.030;2023-05-20T10:39:15;6.28;;;1.20;;
68714;SDS011;55692;53.356;10.030;2023-05-20T10:41:41;2.72;;;1.30;;
68714;SDS011;55692;53.356;10.030;2023-05-20T10:44:08;1.70;;;1.08;;
68714;SDS011;55692;53.356;10.030;2023-05-20T10:46:34;2.78;;;1.30;;
68714;SDS011;55692;53.356;10.030;2023-05-20T10:49:00;2.80;;;1.38;;
68714;SDS011;55692;53.356;10.030;2023-05-20T10:51:27;1.58;;;1.30;;
68714;SDS011;55692;53.356;10.030;2023-05-20T10:53:55;2.58;;;1.60;;
68714;SDS011;55692;53.356;10.030;2023-05-20T10:56:22;3.17;;;1.15;;
68714;SDS011;55692;53.356;10.030;2023-05-20T10:58:49;3.67;;;1.38;;
68714;SDS011;55692;53.356;10.030;2023-05-20T11:01:16;2.78;;;1.40;;
68714;SDS011;55692;53.356;10.030;2023-05-20T11:03:45;2.88;;;1.60;;
68714;SDS011;55692;53.356;10.030;2023-05-20T11:06:13;6.55;;;1.60;;
68714;SDS011;55692;53.356;10.030;2023-05-20T11:08:39;2.33;;;1.52;;
68714;SDS011;55692;53.356;10.030;2023-05-20T11:11:05;2.83;;;1.50;;
68714;SDS011;55692;53.356;10.030;2023-05-20T11:13:31;3.47;;;1.60;;
68714;SDS011;55692;53.356;10.030;2023-05-20T11:15:57;2.80;;;1.50;;
68714;SDS011;55692;53.356;10.030;2023-05-20T11:18:27;4.38;;;1.70;;
68714;SDS011;55692;53.356;10.030;2023-05-20T11:20:56;5.05;;;1.50;;
68714;SDS011;55692;53.356;10.030;2023-05-20T11:23:22;4.35;;;1.60;;
68714;SDS011;55692;53.356;10.030;2023-05-20T11:25:49;6.82;;;1.58;;
68714;SDS011;55692;53.356;10.030;2023-05-20T11:28:15;5.25;;;2.00;;
68714;SDS011;55692;53.356;10.030;2023-05-20T11:30:42;3.90;;;1.70;;
68714;SDS011;55692;53.356;10.030;2023-05-20T11:33:10;2.65;;;1.40;;
68714;SDS011;55692;53.356;10.030;2023-05-20T11:35:37;5.25;;;1.77;;
68714;SDS011;55692;53.356;10.030;2023-05-20T11:38:09;5.65;;;1.73;;
68714;SDS011;55692;53.356;10.030;2023-05-20T11:40:35;4.10;;;1.60;;
68714;SDS011;55692;53.356;10.030;2023-05-20T11:43:01;6.13;;;1.80;;
68714;SDS011;55692;53.356;10.030;2023-05-20T11:45:40;4.70;;;1.58;;
68714;SDS011;55692;53.356;10.030;2023-05-20T11:48:07;9.38;;;1.80;;
68714;SDS011;55692;53.356;10.030;2023-05-20T11:50:34;2.55;;;1.50;;
68714;SDS011;55692;53.356;10.030;2023-05-20T11:53:01;6.22;;;1.75;;
68714;SDS011;55692;53.356;10.030;2023-05-20T11:55:27;5.45;;;1.88;;
68714;SDS011;55692;53.356;10.030;2023-05-20T11:57:53;5.20;;;1.90;;
68714;SDS011;55692;53.356;10.030;2023-05-20T12:00:21;5.13;;;1.60;;
68714;SDS011;55692;53.356;10.030;2023-05-20T12:02:47;4.78;;;1.80;;
68714;SDS011;55692;53.356;10.030;2023-05-20T12:05:13;6.40;;;2.08;;
68714;SDS011;55692;53.356;10.030;2023-05-20T12:07:40;2.55;;;1.48;;
68714;SDS011;55692;53.356;10.030;2023-05-20T12:10:06;2.42;;;1.67;;
68714;SDS011;55692;53.356;10.030;2023-05-20T12:12:32;3.05;;;1.30;;
68714;SDS011;55692;53.356;10.030;2023-05-20T12:15:00;4.43;;;1.65;;
68714;SDS011;55692;53.356;10.030;2023-05-20T12:17:26;4.80;;;1.40;;
68714;SDS011;55692;53.356;10.030;2023-05-20T12:19:52;4.32;;;1.70;;
68714;SDS011;55692;53.356;10.030;2023-05-20T12:22:18;2.53;;;1.20;;
68714;SDS011;55692;53.356;10.030;2023-05-20T12:24:44;5.82;;;2.28;;
68714;SDS011;55692;53.356;10.030;2023-05-20T12:27:10;4.38;;;1.88;;
68714;SDS011;55692;53.356;10.030;2023-05-20T12:29:36;4.30;;;1.75;;
68714;SDS011;55692;53.356;10.030;2023-05-20T12:32:02;5.07;;;1.73;;
68714;SDS011;55692;53.356;10.030;2023-05-20T12:34:28;7.10;;;1.50;;
68714;SDS011;55692;53.356;10.030;2023-05-20T12:36:54;7.47;;;2.08;;
68714;SDS011;55692;53.356;10.030;2023-05-20T12:39:21;7.18;;;2.03;;
68714;SDS011;55692;53.356;10.030;2023-05-20T12:41:47;3.20;;;1.80;;
68714;SDS011;55692;53.356;10.030;2023-05-20T12:44:13;5.35;;;1.83;;
68714;SDS011;55692;53.356;10.030;2023-05-20T12:46:39;3.85;;;1.83;;
68714;SDS011;55692;53.356;10.030;2023-05-20T12:49:05;3.10;;;1.70;;
68714;SDS011;55692;53.356;10.030;2023-05-20T12:51:31;4.15;;;1.80;;
68714;SDS011;55692;53.356;10.030;2023-05-20T12:53:57;2.65;;;1.88;;
68714;SDS011;55692;53.356;10.030;2023-05-20T12:56:23;6.47;;;1.88;;
68714;SDS011;55692;53.356;10.030;2023-05-20T12:58:50;3.95;;;1.58;;
68714;SDS011;55692;53.356;10.030;2023-05-20T13:01:16;2.15;;;1.60;;
68714;SDS011;55692;53.356;10.030;2023-05-20T13:03:42;4.43;;;1.90;;
68714;SDS011;55692;53.356;10.030;2023-05-20T13:06:08;4.30;;;1.95;;
68714;SDS011;55692;53.356;10.030;2023-05-20T13:08:34;4.80;;;1.80;;
68714;SDS011;55692;53.356;10.030;2023-05-20T13:11:00;2.55;;;1.98;;
68714;SDS011;55692;53.356;10.030;2023-05-20T13:13:26;4.28;;;1.90;;
68714;SDS011;55692;53.356;10.030;2023-05-20T13:15:53;3.70;;;2.00;;
68714;SDS011;55692;53.356;10.030;2023-05-20T13:18:19;5.28;;;2.92;;
68714;SDS011;55692;53.356;10.030;2023-05-20T13:20:45;5.20;;;1.70;;
68714;SDS011;55692;53.356;10.030;2023-05-20T13:23:11;5.22;;;2.25;;
68714;SDS011;55692;53.356;10.030;2023-05-20T13:25:37;3.40;;;1.73;;
68714;SDS011;55692;53.356;10.030;2023-05-20T13:28:04;3.60;;;2.15;;
68714;SDS011;55692;53.356;10.030;2023-05-20T13:30:30;2.72;;;1.60;;
68714;SDS011;55692;53.356;10.030;2023-05-20T13:32:56;4.45;;;2.40;;
68714;SDS011;55692;53.356;10.030;2023-05-20T13:35:22;3.92;;;2.05;;
68714;SDS011;55692;53.356;10.030;2023-05-20T13:37:48;3.35;;;2.20;;
68714;SDS011;55692;53.356;10.030;2023-05-20T13:40:14;3.90;;;1.90;;
68714;SDS011;55692;53.356;10.030;2023-05-20T13:42:41;10.73;;;3.15;;
68714;SDS011;55692;53.356;10.030;2023-05-20T13:45:08;3.22;;;2.45;;
68714;SDS011;55692;53.356;10.030;2023-05-20T13:47:34;2.85;;;1.83;;
68714;SDS011;55692;53.356;10.030;2023-05-20T13:50:00;5.60;;;2.75;;
68714;SDS011;55692;53.356;10.030;2023-05-20T13:52:26;9.45;;;3.47;;
68714;SDS011;55692;53.356;10.030;2023-05-20T13:54:52;4.32;;;1.80;;
68714;SDS011;55692;53.356;10.030;2023-05-20T13:57:18;4.43;;;2.10;;
68714;SDS011;55692;53.356;10.030;2023-05-20T13:59:44;3.85;;;2.35;;
68714;SDS011;55692;53.356;10.030;2023-05-20T14:02:10;4.03;;;1.92;;
68714;SDS011;55692;53.356;10.030;2023-05-20T14:04:36;2.83;;;2.03;;
68714;SDS011;55692;53.356;10.030;2023-05-20T14:07:06;4.57;;;2.58;;
68714;SDS011;55692;53.356;10.030;2023-05-20T14:09:32;3.85;;;1.88;;
68714;SDS011;55692;53.356;10.030;2023-05-20T14:11:58;3.38;;;2.22;;
68714;SDS011;55692;53.356;10.030;2023-05-20T14:14:24;3.60;;;1.83;;
68714;SDS011;55692;53.356;10.030;2023-05-20T14:16:50;4.32;;;2.10;;
68714;SDS011;55692;53.356;10.030;2023-05-20T14:19:16;3.88;;;2.13;;
68714;SDS011;55692;53.356;10.030;2023-05-20T14:21:42;4.07;;;2.25;;
68714;SDS011;55692;53.356;10.030;2023-05-20T14:24:08;3.35;;;2.13;;
68714;SDS011;55692;53.356;10.030;2023-05-20T14:26:35;3.17;;;2.13;;
68714;SDS011;55692;53.356;10.030;2023-05-20T14:29:01;9.27;;;2.10;;
68714;SDS011;55692;53.356;10.030;2023-05-20T14:31:27;3.55;;;1.90;;
68714;SDS011;55692;53.356;10.030;2023-05-20T14:33:53;4.38;;;2.03;;
68714;SDS011;55692;53.356;10.030;2023-05-20T14:36:19;4.75;;;2.20;;
68714;SDS011;55692;53.356;10.030;2023-05-20T14:38:45;4.53;;;2.10;;
68714;SDS011;55692;53.356;10.030;2023-05-20T14:41:11;3.45;;;1.70;;
68714;SDS011;55692;53.356;10.030;2023-05-20T14:43:37;2.53;;;1.60;;